Time;durP1;ratioP1;P1;durP2;ratioP2;P2;SDS_P1;SDS_P2;PMS_P1;PMS_P2;Temp;Humidity;BMP_temperature;BMP_pressure;BME280_temperature;BME280_humidity;BME280_pressure;Samples;Min_cycle;Max_cycle;Signal;HPM_P1;HPM_P2
2023/07/20 00:00:12;;;;;;;;;;;16.20;99.90;;;;;;7323470;19;9487;-80
2023/07/20 00:02:44;;;;;;;;;;;16.10;99.90;;;;;;7325492;19;9239;-80
2023/07/20 00:05:13;;;;;;;;;;;16.20;99.90;;;;;;7325507;19;8944;-80
2023/07/20 00:07:42;;;;;;;;;;;16.20;99.90;;;;;;7326843;19;9288;-81
2023/07/20 00:10:12;;;;;;;;;;;16.20;99.90;;;;;;7326794;19;9106;-81
2023/07/20 00:12:41;;;;;;;;;;;16.20;99.90;;;;;;7324102;19;9699;-81
2023/07/20 00:15:10;;;;;;;;;;;16.10;99.90;;;;;;7325793;19;9301;-81
2023/07/20 00:17:39;;;;;;;;;;;16.20;99.90;;;;;;7326736;19;9212;-80
2023/07/20 00:20:13;;;;;;;;;;;16.20;99.90;;;;;;7324581;19;10843;-80
2023/07/20 00:22:42;;;;;;;;;;;16.10;99.90;;;;;;7327573;19;8948;-80
2023/07/20 00:25:12;;;;;;;;;;;16.10;99.90;;;;;;7325894;19;9245;-80
2023/07/20 00:27:41;;;;;;;;;;;16.00;99.90;;;;;;7324213;19;9403;-80
2023/07/20 00:30:11;;;;;;;;;;;15.90;99.90;;;;;;7325085;19;9536;-80
2023/07/20 00:32:40;;;;;;;;;;;15.80;99.90;;;;;;7323758;19;9288;-80
2023/07/20 00:35:12;;;;;;;;;;;15.90;99.90;;;;;;7322866;19;9390;-80
2023/07/20 00:37:42;;;;;;;;;;;15.90;99.90;;;;;;7324563;19;9468;-80
2023/07/20 00:40:11;;;;;;;;;;;15.90;99.90;;;;;;7321987;19;9405;-80
2023/07/20 00:42:40;;;;;;;;;;;15.90;99.90;;;;;;7321858;19;9359;-80
2023/07/20 00:45:10;;;;;;;;;;;15.90;99.90;;;;;;7320162;19;9526;-80
2023/07/20 00:47:40;;;;;;;;;;;16.00;99.90;;;;;;7324032;19;9403;-80
2023/07/20 00:50:12;;;;;;;;;;;15.90;99.90;;;;;;7323516;19;9473;-80
2023/07/20 00:52:42;;;;;;;;;;;16.00;99.90;;;;;;7321478;19;10118;-80
2023/07/20 00:55:12;;;;;;;;;;;15.90;99.90;;;;;;7322391;19;9329;-80
2023/07/20 00:57:41;;;;;;;;;;;15.90;99.90;;;;;;7323982;19;9241;-80
2023/07/20 01:00:12;;;;;;;;;;;15.90;99.90;;;;;;7321878;19;9579;-80
2023/07/20 01:02:41;;;;;;;;;;;15.90;99.90;;;;;;7324256;19;9240;-80
2023/07/20 01:05:16;;;;;;;;;;;16.10;99.90;;;;;;7323076;19;9262;-81
2023/07/20 01:07:53;;;;;;;;;;;16.10;99.90;;;;;;7322671;19;9306;-81
2023/07/20 01:10:32;;;;;;;;;;;16.00;99.90;;;;;;7321757;19;10410;-80
2023/07/20 01:13:03;;;;;;;;;;;16.10;99.90;;;;;;7322265;19;9236;-80
2023/07/20 01:15:32;;;;;;;;;;;16.00;99.90;;;;;;7322302;19;9201;-80
2023/07/20 01:18:01;;;;;;;;;;;16.10;99.90;;;;;;7323096;19;9296;-80
2023/07/20 01:20:35;;;;;;;;;;;16.00;99.90;;;;;;7322688;19;9216;-81
2023/07/20 01:23:34;;;;;;;;;;;16.00;99.90;;;;;;7322408;19;9237;-80
2023/07/20 01:26:29;;;;;;;;;;;16.10;99.90;;;;;;7320467;19;9133;-80
2023/07/20 01:29:24;;;;;;;;;;;16.00;99.90;;;;;;7322876;19;9340;-80
2023/07/20 01:32:00;;;;;;;;;;;16.00;99.90;;;;;;7322816;19;10376;-80
2023/07/20 01:34:31;;;;;;;;;;;16.00;99.90;;;;;;7322977;19;9385;-80
2023/07/20 01:37:02;;;;;;;;;;;15.90;99.90;;;;;;7320581;19;9205;-79
2023/07/20 01:39:31;;;;;;;;;;;15.80;99.90;;;;;;7322860;19;9517;-80
2023/07/20 01:42:01;;;;;;;;;;;15.80;99.90;;;;;;7321608;19;8968;-80
2023/07/20 01:44:30;;;;;;;;;;;15.70;99.90;;;;;;7320957;19;9455;-80
2023/07/20 01:47:02;;;;;;;;;;;15.70;99.90;;;;;;7320072;19;9236;-80
2023/07/20 01:49:31;;;;;;;;;;;15.70;99.90;;;;;;7319486;19;10681;-80
2023/07/20 01:52:00;;;;;;;;;;;15.70;99.90;;;;;;7322211;19;9237;-80
2023/07/20 01:54:29;;;;;;;;;;;15.50;99.90;;;;;;7321160;19;10939;-80
2023/07/20 01:56:58;;;;;;;;;;;15.40;99.90;;;;;;7319972;19;9235;-80
2023/07/20 01:59:27;;;;;;;;;;;15.30;99.90;;;;;;7319932;19;9303;-80
2023/07/20 02:01:56;;;;;;;;;;;15.30;99.90;;;;;;7322370;19;10308;-80
2023/07/20 02:04:27;;;;;;;;;;;15.30;99.90;;;;;;7321731;19;10336;-80
2023/07/20 02:06:56;;;;;;;;;;;15.20;99.90;;;;;;7320008;19;9257;-80
2023/07/20 02:09:26;;;;;;;;;;;15.30;99.90;;;;;;7321438;19;9242;-80
2023/07/20 02:11:55;;;;;;;;;;;15.20;99.90;;;;;;7320316;19;9245;-80
2023/07/20 02:14:24;;;;;;;;;;;15.20;99.90;;;;;;7320226;19;9161;-80
2023/07/20 02:16:57;;;;;;;;;;;15.10;99.90;;;;;;7319806;19;9233;-80
2023/07/20 02:19:30;;;;;;;;;;;15.20;99.90;;;;;;7319253;19;9395;-80
2023/07/20 02:21:59;;;;;;;;;;;15.20;99.90;;;;;;7318739;19;9443;-80
2023/07/20 02:24:31;;;;;;;;;;;15.20;99.90;;;;;;7321655;19;9226;-80
2023/07/20 02:27:00;;;;;;;;;;;15.20;99.90;;;;;;7318797;19;9171;-80
2023/07/20 02:29:29;;;;;;;;;;;15.20;99.90;;;;;;7319875;19;9171;-80
2023/07/20 02:31:58;;;;;;;;;;;15.30;99.90;;;;;;7322691;19;9201;-80
2023/07/20 02:34:30;;;;;;;;;;;15.50;99.90;;;;;;7320993;19;9257;-80
2023/07/20 02:37:00;;;;;;;;;;;15.50;99.90;;;;;;7319972;19;9233;-80
2023/07/20 02:39:30;;;;;;;;;;;15.30;99.90;;;;;;7319065;19;9504;-80
2023/07/20 02:42:00;;;;;;;;;;;15.40;99.90;;;;;;7320229;19;9285;-80
2023/07/20 02:44:29;;;;;;;;;;;15.40;99.90;;;;;;7319830;19;9235;-80
2023/07/20 02:46:58;;;;;;;;;;;15.30;99.90;;;;;;7320067;19;9418;-80
2023/07/20 02:49:29;;;;;;;;;;;15.20;99.90;;;;;;7320463;19;9249;-80
2023/07/20 02:51:58;;;;;;;;;;;15.10;99.90;;;;;;7318446;19;9226;-80
2023/07/20 02:54:27;;;;;;;;;;;15.00;99.90;;;;;;7316395;19;8944;-80
2023/07/20 02:56:56;;;;;;;;;;;14.80;99.90;;;;;;7319598;19;8945;-80
2023/07/20 02:59:25;;;;;;;;;;;14.70;99.90;;;;;;7320588;19;9260;-80
2023/07/20 03:01:55;;;;;;;;;;;14.60;99.90;;;;;;7319888;19;9442;-80
2023/07/20 03:04:24;;;;;;;;;;;14.60;99.90;;;;;;7319921;19;9322;-80
2023/07/20 03:06:56;;;;;;;;;;;14.70;99.90;;;;;;7319172;19;10695;-80
2023/07/20 03:09:26;;;;;;;;;;;14.60;99.90;;;;;;7320612;19;9179;-80
2023/07/20 03:11:55;;;;;;;;;;;14.60;99.90;;;;;;7318229;19;9468;-80
2023/07/20 03:14:25;;;;;;;;;;;14.70;99.90;;;;;;7319277;19;9520;-81
2023/07/20 03:16:54;;;;;;;;;;;14.60;99.90;;;;;;7318554;19;9264;-80
2023/07/20 03:19:23;;;;;;;;;;;14.50;99.90;;;;;;7317944;19;9311;-81
2023/07/20 03:21:52;;;;;;;;;;;14.50;99.90;;;;;;7320555;19;9209;-81
2023/07/20 03:24:23;;;;;;;;;;;14.50;99.90;;;;;;7318536;19;9184;-80
2023/07/20 03:26:52;;;;;;;;;;;14.40;99.90;;;;;;7318668;19;9510;-80
2023/07/20 03:29:22;;;;;;;;;;;14.40;99.90;;;;;;7319181;19;9209;-80
2023/07/20 03:31:51;;;;;;;;;;;14.40;99.90;;;;;;7319440;19;9461;-80
2023/07/20 03:34:19;;;;;;;;;;;14.50;99.90;;;;;;7321092;19;9266;-80
2023/07/20 03:36:48;;;;;;;;;;;14.70;99.90;;;;;;7324936;19;9240;-80
2023/07/20 03:39:17;;;;;;;;;;;14.80;99.90;;;;;;7326237;19;9233;-80
2023/07/20 03:41:49;;;;;;;;;;;14.60;99.90;;;;;;7326670;19;9153;-80
2023/07/20 03:44:18;;;;;;;;;;;14.60;99.90;;;;;;7324992;19;9527;-80
2023/07/20 03:46:47;;;;;;;;;;;14.50;99.90;;;;;;7325695;19;9293;-79
2023/07/20 03:49:17;;;;;;;;;;;14.40;99.90;;;;;;7325168;19;9667;-80
2023/07/20 03:51:46;;;;;;;;;;;14.30;99.90;;;;;;7322219;19;9550;-80
2023/07/20 03:54:15;;;;;;;;;;;14.10;99.90;;;;;;7322748;19;9522;-80
2023/07/20 03:56:44;;;;;;;;;;;14.00;99.90;;;;;;7324888;19;9614;-80
2023/07/20 03:59:16;;;;;;;;;;;14.00;99.90;;;;;;7326799;19;10497;-80
2023/07/20 04:01:45;;;;;;;;;;;13.90;99.90;;;;;;7326001;19;9197;-80
2023/07/20 04:04:14;;;;;;;;;;;13.90;99.90;;;;;;7323506;19;9451;-79
2023/07/20 04:06:44;;;;;;;;;;;13.80;99.90;;;;;;7324856;19;9545;-80
2023/07/20 04:09:13;;;;;;;;;;;13.80;99.90;;;;;;7324352;19;9625;-80
2023/07/20 04:11:43;;;;;;;;;;;13.90;99.90;;;;;;7325793;19;9244;-80
2023/07/20 04:14:15;;;;;;;;;;;13.90;99.90;;;;;;7323886;19;9249;-80
2023/07/20 04:16:44;;;;;;;;;;;13.90;99.90;;;;;;7322012;19;9177;-79
2023/07/20 04:19:14;;;;;;;;;;;13.90;99.90;;;;;;7323702;19;9325;-80
2023/07/20 04:21:43;;;;;;;;;;;14.00;99.90;;;;;;7326299;19;9345;-79
2023/07/20 04:24:12;;;;;;;;;;;13.90;99.90;;;;;;7325841;19;9229;-79
2023/07/20 04:26:41;;;;;;;;;;;13.90;99.90;;;;;;7324523;19;9302;-80
2023/07/20 04:29:10;;;;;;;;;;;13.80;99.90;;;;;;7324235;19;9235;-80
2023/07/20 04:31:42;;;;;;;;;;;13.90;99.90;;;;;;7326032;19;9192;-80
2023/07/20 04:34:11;;;;;;;;;;;14.00;99.90;;;;;;7323935;19;10595;-80
2023/07/20 04:36:40;;;;;;;;;;;14.30;99.90;;;;;;7322221;19;9430;-80
2023/07/20 04:39:09;;;;;;;;;;;14.40;99.90;;;;;;7323000;19;9395;-80
2023/07/20 04:41:38;;;;;;;;;;;14.40;99.90;;;;;;7322559;19;9241;-78
2023/07/20 04:44:07;;;;;;;;;;;14.40;99.90;;;;;;7323712;19;10841;-80
2023/07/20 04:46:36;;;;;;;;;;;14.40;99.90;;;;;;7319416;19;9297;-80
2023/07/20 04:49:08;;;;;;;;;;;14.30;99.90;;;;;;7323972;19;9524;-80
2023/07/20 04:51:36;;;;;;;;;;;14.30;99.90;;;;;;7322744;19;10514;-79
2023/07/20 04:54:06;;;;;;;;;;;14.30;99.90;;;;;;7322702;19;9213;-81
2023/07/20 04:56:35;;;;;;;;;;;14.40;99.90;;;;;;7320330;19;9189;-81
2023/07/20 04:59:04;;;;;;;;;;;14.40;99.90;;;;;;7320399;19;8945;-82
2023/07/20 05:01:33;;;;;;;;;;;14.30;99.90;;;;;;7323673;19;9421;-82
2023/07/20 05:04:02;;;;;;;;;;;14.40;99.90;;;;;;7324174;19;9595;-82
2023/07/20 05:06:34;;;;;;;;;;;14.40;99.90;;;;;;7323195;19;9796;-81
2023/07/20 05:09:03;;;;;;;;;;;14.40;99.90;;;;;;7324311;19;9288;-80
2023/07/20 05:11:32;;;;;;;;;;;14.50;99.90;;;;;;7323519;19;9335;-79
2023/07/20 05:14:02;;;;;;;;;;;14.40;99.90;;;;;;7322232;19;10863;-79
2023/07/20 05:16:31;;;;;;;;;;;14.40;99.90;;;;;;7323996;19;9581;-80
2023/07/20 05:19:00;;;;;;;;;;;14.40;99.90;;;;;;7322616;19;9482;-80
2023/07/20 05:21:29;;;;;;;;;;;14.60;99.90;;;;;;7322439;19;8944;-80
2023/07/20 05:24:00;;;;;;;;;;;14.70;99.90;;;;;;7324158;19;9111;-79
2023/07/20 05:26:29;;;;;;;;;;;14.70;99.90;;;;;;7322197;19;9181;-79
2023/07/20 05:28:58;;;;;;;;;;;14.70;99.90;;;;;;7325999;19;9306;-79
2023/07/20 05:31:30;;;;;;;;;;;14.90;99.90;;;;;;7324864;19;9608;-80
2023/07/20 05:33:59;;;;;;;;;;;15.10;99.90;;;;;;7324729;19;9457;-79
2023/07/20 05:36:28;;;;;;;;;;;15.10;99.90;;;;;;7325743;19;9238;-80
2023/07/20 05:39:00;;;;;;;;;;;15.10;99.90;;;;;;7324888;19;9144;-80
2023/07/20 05:41:30;;;;;;;;;;;15.10;99.90;;;;;;7325559;19;9260;-80
2023/07/20 05:43:59;;;;;;;;;;;15.10;99.90;;;;;;7321495;19;9485;-81
2023/07/20 05:46:28;;;;;;;;;;;15.10;99.90;;;;;;7324389;19;9302;-80
2023/07/20 05:48:57;;;;;;;;;;;15.10;99.90;;;;;;7320544;19;9473;-81
2023/07/20 05:51:26;;;;;;;;;;;15.50;99.90;;;;;;7323214;19;10858;-80
2023/07/20 05:53:55;;;;;;;;;;;15.60;99.90;;;;;;7321527;19;9221;-78
2023/07/20 05:56:26;;;;;;;;;;;15.80;99.90;;;;;;7320335;19;9407;-80
2023/07/20 05:58:56;;;;;;;;;;;16.00;99.90;;;;;;7322770;19;9242;-79
2023/07/20 06:01:27;;;;;;;;;;;16.00;99.90;;;;;;7323375;19;9442;-80
2023/07/20 06:03:56;;;;;;;;;;;16.00;99.90;;;;;;7328068;19;9267;-78
2023/07/20 06:06:25;;;;;;;;;;;15.80;99.90;;;;;;7321227;19;9415;-79
2023/07/20 06:08:54;;;;;;;;;;;15.90;99.90;;;;;;7321686;19;9276;-81
2023/07/20 06:11:26;;;;;;;;;;;15.70;99.90;;;;;;7319977;19;9240;-80
2023/07/20 06:13:55;;;;;;;;;;;16.00;99.90;;;;;;7320184;19;9462;-81
2023/07/20 06:16:25;;;;;;;;;;;16.40;99.90;;;;;;7322076;19;10824;-81
2023/07/20 06:18:54;;;;;;;;;;;16.60;99.90;;;;;;7320407;19;9539;-81
2023/07/20 06:21:23;;;;;;;;;;;16.80;99.90;;;;;;7322376;19;8944;-81
2023/07/20 06:23:52;;;;;;;;;;;16.60;99.90;;;;;;7320204;19;9269;-83
2023/07/20 06:26:21;;;;;;;;;;;16.40;99.90;;;;;;7317941;19;9470;-83
2023/07/20 06:28:53;;;;;;;;;;;16.70;99.90;;;;;;7320346;19;9213;-83
2023/07/20 06:31:21;;;;;;;;;;;16.30;99.90;;;;;;7320826;19;9153;-82
2023/07/20 06:33:51;;;;;;;;;;;16.70;99.90;;;;;;7312519;19;9585;-83
2023/07/20 06:36:21;;;;;;;;;;;16.70;99.90;;;;;;7309700;19;9207;-82
2023/07/20 06:38:50;;;;;;;;;;;16.80;99.90;;;;;;7316250;19;10735;-83
2023/07/20 06:41:19;;;;;;;;;;;17.00;99.90;;;;;;7312976;19;9359;-83
2023/07/20 06:43:48;;;;;;;;;;;16.70;99.90;;;;;;7316787;19;9228;-83
2023/07/20 06:46:20;;;;;;;;;;;16.60;99.90;;;;;;7320058;19;9389;-84
2023/07/20 06:48:48;;;;;;;;;;;16.60;99.90;;;;;;7317744;19;9326;-83
2023/07/20 06:51:18;;;;;;;;;;;16.70;99.90;;;;;;7317693;19;9305;-83
2023/07/20 06:53:47;;;;;;;;;;;16.50;99.90;;;;;;7319945;19;9237;-83
2023/07/20 06:56:16;;;;;;;;;;;16.60;99.90;;;;;;7320427;19;10516;-84
2023/07/20 06:58:45;;;;;;;;;;;16.90;99.90;;;;;;7320246;19;9414;-83
2023/07/20 07:01:14;;;;;;;;;;;16.90;99.90;;;;;;7320201;19;9184;-83
2023/07/20 07:03:46;;;;;;;;;;;17.10;99.90;;;;;;7322674;19;9244;-84
2023/07/20 07:06:15;;;;;;;;;;;17.30;99.90;;;;;;7320503;19;9288;-83
2023/07/20 07:08:44;;;;;;;;;;;17.10;99.90;;;;;;7323380;19;9173;-83
2023/07/20 07:11:13;;;;;;;;;;;16.90;99.90;;;;;;7328472;19;9251;-84
2023/07/20 07:13:42;;;;;;;;;;;17.30;99.90;;;;;;7327612;19;9200;-84
2023/07/20 07:16:11;;;;;;;;;;;18.00;99.90;;;;;;7324125;19;8944;-83
2023/07/20 07:18:41;;;;;;;;;;;19.10;99.90;;;;;;7327990;19;9727;-83
2023/07/20 07:21:12;;;;;;;;;;;19.10;98.30;;;;;;7327250;19;9596;-83
2023/07/20 07:23:41;;;;;;;;;;;19.10;98.60;;;;;;7328557;19;9397;-83
2023/07/20 07:26:10;;;;;;;;;;;19.30;96.80;;;;;;7327412;19;9399;-83
2023/07/20 07:28:40;;;;;;;;;;;18.50;96.20;;;;;;7328960;19;10021;-83
2023/07/20 07:31:09;;;;;;;;;;;18.70;98.80;;;;;;7327529;19;9229;-83
2023/07/20 07:33:38;;;;;;;;;;;18.90;97.80;;;;;;7329274;19;9195;-84
2023/07/20 07:36:08;;;;;;;;;;;19.50;99.90;;;;;;7324894;19;9216;-83
2023/07/20 07:38:39;;;;;;;;;;;19.10;94.30;;;;;;7326414;19;9517;-83
2023/07/20 07:41:08;;;;;;;;;;;19.90;99.30;;;;;;7327813;19;9215;-82
2023/07/20 07:43:38;;;;;;;;;;;19.90;96.20;;;;;;7325663;19;9051;-83
2023/07/20 07:46:07;;;;;;;;;;;20.70;99.90;;;;;;7324185;19;9310;-83
2023/07/20 07:48:36;;;;;;;;;;;20.60;98.50;;;;;;7326912;19;9266;-83
2023/07/20 07:51:05;;;;;;;;;;;20.20;96.50;;;;;;7326507;19;9197;-84
2023/07/20 07:53:36;;;;;;;;;;;20.00;95.90;;;;;;7326348;19;9214;-84
2023/07/20 07:56:09;;;;;;;;;;;19.10;95.60;;;;;;7323109;19;9293;-83
2023/07/20 07:58:38;;;;;;;;;;;18.90;97.80;;;;;;7327576;19;9256;-83
2023/07/20 08:01:07;;;;;;;;;;;19.30;97.30;;;;;;7326811;19;9230;-84
2023/07/20 08:03:37;;;;;;;;;;;19.10;98.50;;;;;;7327147;19;9245;-83
2023/07/20 08:06:06;;;;;;;;;;;19.10;97.30;;;;;;7326992;19;9221;-83
2023/07/20 08:08:36;;;;;;;;;;;19.60;99.90;;;;;;7326580;19;10380;-84
2023/07/20 08:11:07;;;;;;;;;;;19.00;98.70;;;;;;7326813;19;9305;-83
2023/07/20 08:13:36;;;;;;;;;;;19.40;99.70;;;;;;7325330;19;9128;-84
2023/07/20 08:16:06;;;;;;;;;;;18.90;99.90;;;;;;7324938;19;9193;-83
2023/07/20 08:18:35;;;;;;;;;;;18.60;99.90;;;;;;7325692;19;10442;-83
2023/07/20 08:21:04;;;;;;;;;;;18.40;99.90;;;;;;7326295;19;9297;-83
2023/07/20 08:23:33;;;;;;;;;;;18.30;99.80;;;;;;7326676;19;10360;-84
2023/07/20 08:26:03;;;;;;;;;;;18.30;99.90;;;;;;7326251;19;9209;-83
2023/07/20 08:28:34;;;;;;;;;;;18.60;99.90;;;;;;7325071;19;9115;-84
2023/07/20 08:31:04;;;;;;;;;;;18.60;99.80;;;;;;7326082;19;9167;-83
2023/07/20 08:33:33;;;;;;;;;;;18.90;99.60;;;;;;7324284;19;9405;-84
2023/07/20 08:36:05;;;;;;;;;;;19.50;99.90;;;;;;7322868;19;9236;-84
2023/07/20 08:38:34;;;;;;;;;;;20.20;99.50;;;;;;7325328;19;9527;-84
2023/07/20 08:41:03;;;;;;;;;;;20.70;99.90;;;;;;7325888;19;9181;-83
2023/07/20 08:43:38;;;;;;;;;;;20.50;97.90;;;;;;7323761;19;9409;-83
2023/07/20 08:46:08;;;;;;;;;;;21.10;98.80;;;;;;7321854;19;9000;-83
2023/07/20 08:48:37;;;;;;;;;;;21.20;90.50;;;;;;7323580;19;9508;-84
2023/07/20 08:51:07;;;;;;;;;;;20.20;85.50;;;;;;7321840;19;9239;-84
2023/07/20 08:53:37;;;;;;;;;;;19.90;87.30;;;;;;7323087;19;9164;-84
2023/07/20 08:56:07;;;;;;;;;;;19.60;92.00;;;;;;7321941;19;8944;-83
2023/07/20 08:58:40;;;;;;;;;;;19.50;92.70;;;;;;7321929;19;9248;-84
2023/07/20 09:01:10;;;;;;;;;;;19.50;91.30;;;;;;7324081;19;9425;-83
2023/07/20 09:03:39;;;;;;;;;;;19.30;89.30;;;;;;7323341;19;9468;-84
2023/07/20 09:06:09;;;;;;;;;;;19.60;93.70;;;;;;7322245;19;9229;-83
2023/07/20 09:08:41;;;;;;;;;;;19.90;95.00;;;;;;7324001;19;9110;-84
2023/07/20 09:11:10;;;;;;;;;;;19.80;92.00;;;;;;7321383;19;9173;-84
2023/07/20 09:13:42;;;;;;;;;;;19.50;90.70;;;;;;7321753;19;9810;-83
2023/07/20 09:16:15;;;;;;;;;;;19.40;86.10;;;;;;7320915;19;9207;-83
2023/07/20 09:18:45;;;;;;;;;;;19.50;87.70;;;;;;7322262;19;9189;-83
2023/07/20 09:21:19;;;;;;;;;;;19.40;87.40;;;;;;7322781;19;9426;-83
2023/07/20 09:23:53;;;;;;;;;;;19.60;89.10;;;;;;7322360;19;9199;-83
2023/07/20 09:26:22;;;;;;;;;;;19.60;89.70;;;;;;7322941;19;9193;-83
2023/07/20 09:28:55;;;;;;;;;;;19.90;94.90;;;;;;7321539;19;9123;-84
2023/07/20 09:31:25;;;;;;;;;;;20.20;96.70;;;;;;7322765;19;9261;-83
2023/07/20 09:33:57;;;;;;;;;;;20.20;78.00;;;;;;7325815;19;10629;-84
2023/07/20 09:36:29;;;;;;;;;;;20.40;81.70;;;;;;7322214;19;9479;-84
2023/07/20 09:38:58;;;;;;;;;;;20.30;77.60;;;;;;7320875;19;10442;-84
2023/07/20 09:41:27;;;;;;;;;;;20.30;80.40;;;;;;7322092;19;9311;-84
2023/07/20 09:43:59;;;;;;;;;;;19.70;78.20;;;;;;7178934;19;2811986;-82
2023/07/20 09:46:43;;;;;;;;;;;19.80;90.60;;;;;;7323708;19;9658;-83
2023/07/20 09:49:12;;;;;;;;;;;20.10;91.50;;;;;;7323667;19;9465;-83
2023/07/20 09:51:42;;;;;;;;;;;20.40;73.60;;;;;;7322750;19;9292;-83
2023/07/20 09:54:11;;;;;;;;;;;20.60;80.40;;;;;;7323919;19;9237;-83
2023/07/20 09:56:42;;;;;;;;;;;21.10;90.10;;;;;;7319910;19;9533;-83
2023/07/20 09:59:13;;;;;;;;;;;21.00;73.40;;;;;;7319709;19;9441;-81
2023/07/20 10:01:46;;;;;;;;;;;21.00;72.20;;;;;;7313515;19;10758;-79
2023/07/20 10:04:19;;;;;;;;;;;21.10;71.20;;;;;;7320977;19;9115;-80
2023/07/20 10:06:52;;;;;;;;;;;21.30;76.10;;;;;;7319275;19;9461;-83
2023/07/20 10:09:22;;;;;;;;;;;21.80;81.70;;;;;;7321303;19;10735;-83
2023/07/20 10:11:55;;;;;;;;;;;22.00;73.50;;;;;;7320493;19;9307;-82
2023/07/20 10:14:30;;;;;;;;;;;21.40;73.00;;;;;;7322798;19;9543;-84
2023/07/20 10:17:05;;;;;;;;;;;20.90;73.80;;;;;;7320934;19;9037;-84
2023/07/20 10:19:47;;;;;;;;;;;20.60;72.00;;;;;;7322118;19;9830;-83
2023/07/20 10:22:20;;;;;;;;;;;20.80;72.90;;;;;;7321979;19;9276;-82
2023/07/20 10:24:50;;;;;;;;;;;20.60;69.60;;;;;;7320551;19;9742;-84
2023/07/20 10:27:19;;;;;;;;;;;20.00;72.00;;;;;;7322009;19;10348;-84
2023/07/20 10:29:52;;;;;;;;;;;20.70;82.00;;;;;;7322025;19;9197;-84
2023/07/20 10:32:23;;;;;;;;;;;20.60;64.80;;;;;;7317195;19;9187;-84
2023/07/20 10:34:54;;;;;;;;;;;21.30;85.60;;;;;;7322306;19;9257;-84
2023/07/20 10:37:54;;;;;;;;;;;21.50;66.10;;;;;;7319917;19;9251;-85
2023/07/20 10:40:34;;;;;;;;;;;21.00;69.20;;;;;;7322191;19;9184;-84
2023/07/20 10:43:09;;;;;;;;;;;20.50;70.70;;;;;;7323476;19;9102;-82
2023/07/20 10:45:44;;;;;;;;;;;20.10;72.80;;;;;;7328024;19;9226;-83
2023/07/20 10:48:19;;;;;;;;;;;20.30;72.70;;;;;;7327336;19;9456;-82
2023/07/20 10:51:09;;;;;;;;;;;20.90;81.10;;;;;;7329711;19;8944;-84
2023/07/20 10:53:38;;;;;;;;;;;20.90;70.10;;;;;;7328193;19;9402;-84
2023/07/20 10:56:13;;;;;;;;;;;20.70;68.60;;;;;;7328163;19;9153;-85
2023/07/20 10:58:43;;;;;;;;;;;21.00;71.30;;;;;;7329440;19;9294;-86
2023/07/20 11:01:16;;;;;;;;;;;21.20;65.90;;;;;;7328703;19;8944;-85
2023/07/20 11:03:52;;;;;;;;;;;20.60;66.80;;;;;;7328645;19;9193;-84
2023/07/20 11:06:38;;;;;;;;;;;21.40;84.70;;;;;;7326374;19;9255;-85
2023/07/20 11:09:17;;;;;;;;;;;22.10;86.80;;;;;;7327574;19;9133;-84
2023/07/20 11:11:49;;;;;;;;;;;21.80;72.00;;;;;;7325928;19;9208;-84
2023/07/20 11:14:25;;;;;;;;;;;21.50;71.10;;;;;;7326471;19;10169;-85
2023/07/20 11:16:57;;;;;;;;;;;21.40;83.30;;;;;;7327024;19;10615;-83
2023/07/20 11:19:28;;;;;;;;;;;21.20;82.30;;;;;;7326115;19;9551;-84
2023/07/20 11:21:58;;;;;;;;;;;21.30;82.80;;;;;;7326535;19;9837;-84
2023/07/20 11:24:28;;;;;;;;;;;21.40;79.10;;;;;;7327849;19;9102;-85
2023/07/20 11:26:57;;;;;;;;;;;21.30;69.70;;;;;;7318543;19;9473;-82
2023/07/20 11:29:27;;;;;;;;;;;21.40;68.20;;;;;;7323988;19;9185;-82
2023/07/20 11:32:00;;;;;;;;;;;21.00;65.80;;;;;;7321106;19;9461;-82
2023/07/20 11:34:29;;;;;;;;;;;21.60;67.30;;;;;;7326444;19;9497;-83
2023/07/20 11:36:58;;;;;;;;;;;22.00;70.60;;;;;;7324180;19;9169;-82
2023/07/20 11:39:28;;;;;;;;;;;22.60;84.60;;;;;;7324957;19;9159;-83
2023/07/20 11:41:58;;;;;;;;;;;22.60;70.20;;;;;;7328577;19;9181;-84
2023/07/20 11:44:29;;;;;;;;;;;21.90;65.50;;;;;;7326234;19;9170;-83
2023/07/20 11:47:10;;;;;;;;;;;22.10;73.60;;;;;;7328435;19;9415;-84
2023/07/20 11:49:40;;;;;;;;;;;21.30;65.70;;;;;;7326557;19;9213;-84
2023/07/20 11:52:12;;;;;;;;;;;21.80;66.10;;;;;;7326937;19;9831;-83
2023/07/20 11:54:43;;;;;;;;;;;21.80;64.90;;;;;;7327718;19;9729;-84
2023/07/20 11:57:19;;;;;;;;;;;22.10;68.30;;;;;;7326507;19;9190;-84
2023/07/20 11:59:57;;;;;;;;;;;21.60;64.30;;;;;;7327785;19;8970;-83
2023/07/20 12:02:30;;;;;;;;;;;21.50;65.80;;;;;;7317220;19;8944;-80
2023/07/20 12:05:01;;;;;;;;;;;21.80;64.80;;;;;;7319187;19;10499;-80
2023/07/20 12:07:31;;;;;;;;;;;21.90;67.10;;;;;;7323042;19;9565;-80
2023/07/20 12:10:07;;;;;;;;;;;22.10;65.60;;;;;;7326119;19;9489;-80
2023/07/20 12:12:36;;;;;;;;;;;22.30;65.40;;;;;;7326275;19;9177;-80
2023/07/20 12:15:17;;;;;;;;;;;22.40;63.20;;;;;;7325317;19;10357;-80
2023/07/20 12:17:52;;;;;;;;;;;22.60;66.10;;;;;;7322927;19;9190;-80
2023/07/20 12:20:39;;;;;;;;;;;23.00;68.80;;;;;;7323123;19;9512;-80
2023/07/20 12:23:12;;;;;;;;;;;22.90;62.00;;;;;;7324397;19;9394;-80
2023/07/20 12:25:43;;;;;;;;;;;22.90;66.10;;;;;;7324297;19;9182;-80
2023/07/20 12:28:14;;;;;;;;;;;22.80;64.20;;;;;;7325514;19;9476;-80
2023/07/20 12:30:45;;;;;;;;;;;23.10;67.30;;;;;;7325336;19;9189;-80
2023/07/20 12:33:17;;;;;;;;;;;23.40;66.10;;;;;;7321606;19;9675;-80
2023/07/20 12:35:46;;;;;;;;;;;23.50;61.40;;;;;;7324291;19;9388;-80
2023/07/20 12:38:15;;;;;;;;;;;23.40;61.40;;;;;;7324500;19;9177;-80
2023/07/20 12:40:44;;;;;;;;;;;23.20;60.20;;;;;;7323896;19;10211;-80
2023/07/20 12:43:13;;;;;;;;;;;23.30;60.90;;;;;;7324664;19;9265;-80
2023/07/20 12:45:43;;;;;;;;;;;23.30;63.00;;;;;;7321819;19;10376;-80
2023/07/20 12:48:12;;;;;;;;;;;23.50;66.40;;;;;;7324140;19;9181;-80
2023/07/20 12:50:43;;;;;;;;;;;23.40;59.10;;;;;;7322756;19;10394;-81
2023/07/20 12:53:12;;;;;;;;;;;23.30;61.40;;;;;;7323948;19;9145;-80
2023/07/20 12:55:41;;;;;;;;;;;23.30;61.70;;;;;;7325208;19;9193;-81
2023/07/20 12:58:11;;;;;;;;;;;23.20;63.20;;;;;;7321778;19;9249;-80
2023/07/20 13:00:40;;;;;;;;;;;23.00;63.80;;;;;;7323401;19;9426;-81
2023/07/20 13:03:09;;;;;;;;;;;22.70;64.70;;;;;;7325333;19;9285;-81
2023/07/20 13:05:39;;;;;;;;;;;22.50;63.80;;;;;;7322288;19;9252;-80
2023/07/20 13:08:10;;;;;;;;;;;22.20;64.10;;;;;;7323836;19;9225;-80
2023/07/20 13:10:40;;;;;;;;;;;21.70;65.30;;;;;;7323479;19;9225;-80
2023/07/20 13:13:10;;;;;;;;;;;21.40;66.80;;;;;;7321725;19;9244;-80
2023/07/20 13:15:46;;;;;;;;;;;21.00;67.90;;;;;;7322515;19;9109;-80
2023/07/20 13:18:15;;;;;;;;;;;20.80;70.10;;;;;;7319477;19;9219;-80
2023/07/20 13:20:44;;;;;;;;;;;20.60;70.30;;;;;;7323846;19;9318;-80
2023/07/20 13:23:15;;;;;;;;;;;20.50;71.10;;;;;;7321915;19;9199;-80
2023/07/20 13:25:45;;;;;;;;;;;20.30;72.20;;;;;;7322503;19;9161;-80
2023/07/20 13:28:14;;;;;;;;;;;20.20;72.30;;;;;;7322887;19;9208;-80
2023/07/20 13:30:44;;;;;;;;;;;20.00;75.20;;;;;;7322708;19;9585;-80
2023/07/20 13:33:13;;;;;;;;;;;19.90;77.10;;;;;;7322393;19;10893;-80
2023/07/20 13:35:42;;;;;;;;;;;19.80;81.60;;;;;;7322108;19;9244;-80
2023/07/20 13:38:11;;;;;;;;;;;19.80;88.00;;;;;;7319658;19;10213;-78
2023/07/20 13:40:43;;;;;;;;;;;19.80;88.50;;;;;;7322985;19;9472;-80
2023/07/20 13:43:12;;;;;;;;;;;20.00;89.80;;;;;;7322411;19;11242;-80
2023/07/20 13:45:41;;;;;;;;;;;20.30;88.40;;;;;;7320362;19;9652;-80
2023/07/20 13:48:10;;;;;;;;;;;20.70;87.20;;;;;;7320458;19;9225;-80
2023/07/20 13:50:39;;;;;;;;;;;21.00;91.60;;;;;;7323223;19;9584;-80
2023/07/20 13:53:05;;;;;;;;;;;21.20;86.30;;;;;;7322442;19;9214;-80
2023/07/20 13:55:36;;;;;;;;;;;21.00;79.60;;;;;;7322226;19;9779;-80
2023/07/20 13:58:09;;;;;;;;;;;20.80;82.00;;;;;;7321749;19;9451;-80
2023/07/20 14:00:38;;;;;;;;;;;20.40;85.10;;;;;;7322631;19;9390;-80
2023/07/20 14:03:07;;;;;;;;;;;20.30;89.60;;;;;;7321829;19;9114;-80
2023/07/20 14:05:36;;;;;;;;;;;20.20;89.40;;;;;;7320984;19;9150;-80
2023/07/20 14:08:06;;;;;;;;;;;20.20;86.70;;;;;;7321789;19;10846;-80
2023/07/20 14:10:35;;;;;;;;;;;20.30;88.10;;;;;;7322119;19;9292;-80
2023/07/20 14:13:06;;;;;;;;;;;20.40;85.10;;;;;;7322584;19;9449;-80
2023/07/20 14:15:38;;;;;;;;;;;20.30;83.60;;;;;;7322107;19;8944;-80
2023/07/20 14:18:07;;;;;;;;;;;20.30;84.20;;;;;;7318596;19;9172;-80
2023/07/20 14:20:36;;;;;;;;;;;20.60;84.80;;;;;;7312432;19;9169;-80
2023/07/20 14:23:05;;;;;;;;;;;20.50;85.30;;;;;;7317055;19;9189;-80
2023/07/20 14:25:35;;;;;;;;;;;20.70;84.70;;;;;;7313873;19;9214;-80
2023/07/20 14:28:07;;;;;;;;;;;20.90;82.80;;;;;;7316264;19;9607;-80
2023/07/20 14:30:36;;;;;;;;;;;21.30;83.40;;;;;;7319193;19;9173;-80
2023/07/20 14:33:05;;;;;;;;;;;21.10;78.40;;;;;;7318737;19;9399;-80
2023/07/20 14:35:34;;;;;;;;;;;21.10;81.10;;;;;;7320967;19;9139;-80
2023/07/20 14:38:04;;;;;;;;;;;21.20;79.50;;;;;;7317298;19;9293;-79
2023/07/20 14:40:33;;;;;;;;;;;21.60;80.50;;;;;;7319256;19;9481;-80
2023/07/20 14:43:03;;;;;;;;;;;21.90;79.40;;;;;;7316961;19;10457;-79
2023/07/20 14:45:35;;;;;;;;;;;22.00;79.00;;;;;;7314864;19;9337;-80
2023/07/20 14:48:04;;;;;;;;;;;22.00;77.00;;;;;;7319363;19;9462;-80